Time,TemperatureF,DewpointF,PressureIn,WindDirection,WindDirectionDegrees,WindSpeedMPH,WindSpeedGustMPH,Humidity,HourlyPrecipIn,Conditions,Clouds,dailyrainin,SoftwareType,DateUTC
2013-08-13 00:03:00,71.2,66.7,30.06,West,270,0.0,0.0,86,-99.99,,,-99.99,WSDL version 430,2013-08-13 05:03:00,
2013-08-13 00:08:00,71.1,66.6,30.09,West,270,0.0,0.0,86,-99.99,,,-99.99,WSDL version 430,2013-08-13 05:08:00,
2013-08-13 00:13:00,71.0,66.5,30.09,West,270,0.0,0.9,86,-99.99,,,-99.99,WSDL version 430,2013-08-13 05:13:00,
2013-08-13 00:18:00,70.8,66.5,30.09,West,270,0.0,0.9,86,-99.99,,,-99.99,WSDL version 430,2013-08-13 05:18:00,
2013-08-13 00:23:00,70.7,66.7,30.06,West,270,0.0,0.0,87,-99.99,,,-99.99,WSDL version 430,2013-08-13 05:23:00,
2013-08-13 00:28:00,71.5,68.2,30.06,West,270,0.0,0.0,89,-99.99,,,-99.99,WSDL version 430,2013-08-13 05:28:00,
2013-08-13 00:34:00,72.3,68.8,30.09,West,270,0.0,0.0,89,-99.99,,,-99.99,WSDL version 430,2013-08-13 05:34:00,
2013-08-13 00:39:00,72.0,67.8,30.09,West,270,0.0,0.0,87,-99.99,,,-99.99,WSDL version 430,2013-08-13 05:39:00,
2013-08-13 00:44:00,71.8,67.7,30.09,West,270,0.0,0.0,87,-99.99,,,-99.99,WSDL version 430,2013-08-13 05:44:00,
2013-08-13 00:49:00,72.2,68.4,30.09,West,270,0.0,0.0,88,-99.99,,,-99.99,WSDL version 430,2013-08-13 05:49:00,
2013-08-13 00:57:00,72.1,67.5,30.09,West,270,0.0,0.0,86,-99.99,,,-99.99,WSDL version 430,2013-08-13 05:57:00,
2013-08-13 01:02:00,72.0,67.5,30.09,West,270,0.0,0.0,86,-99.99,,,-99.99,WSDL version 430,2013-08-13 06:02:00,
2013-08-13 01:07:00,72.3,68.0,30.06,West,270,0.0,0.0,86,-99.99,,,-99.99,WSDL version 430,2013-08-13 06:07:00,
2013-08-13 01:12:00,72.1,67.5,30.06,West,270,0.0,0.0,86,-99.99,,,-99.99,WSDL version 430,2013-08-13 06:12:00,
2013-08-13 01:17:00,71.7,67.1,30.06,West,270,0.0,0.0,86,-99.99,,,-99.99,WSDL version 430,2013-08-13 06:17:00,
2013-08-13 01:22:00,71.5,66.9,30.06,West,270,0.0,0.0,86,-99.99,,,-99.99,WSDL version 430,2013-08-13 06:22:00,
2013-08-13 01:27:00,71.9,67.7,30.06,West,270,0.0,0.0,87,-99.99,,,-99.99,WSDL version 430,2013-08-13 06:27:00,
2013-08-13 01:32:00,72.0,67.5,30.06,West,270,0.0,0.0,86,-99.99,,,-99.99,WSDL version 430,2013-08-13 06:32:00,
2013-08-13 01:37:00,71.7,67.1,30.06,West,270,0.0,0.0,86,-99.99,,,-99.99,WSDL version 430,2013-08-13 06:37:00,
2013-08-13 01:42:00,71.4,67.2,30.06,West,270,0.0,0.0,86,-99.99,,,-99.99,WSDL version 430,2013-08-13 06:42:00,
2013-08-13 01:47:00,71.2,67.1,30.06,West,270,0.0,0.0,87,-99.99,,,-99.99,WSDL version 430,2013-08-13 06:47:00,
2013-08-13 01:52:00,71.1,67.0,30.06,West,270,0.0,0.0,87,-99.99,,,-99.99,WSDL version 430,2013-08-13 06:52:00,
2013-08-13 02:02:00,72.4,69.1,30.06,SW,227,0.0,0.0,89,-99.99,,,-99.99,WSDL version 430,2013-08-13 07:02:00,
2013-08-13 02:07:00,72.2,67.8,30.06,SW,225,0.0,0.0,86,-99.99,,,-99.99,WSDL version 430,2013-08-13 07:07:00,
2013-08-13 02:12:00,71.7,66.8,30.06,SW,225,0.0,0.0,84,-99.99,,,-99.99,WSDL version 430,2013-08-13 07:12:00,
2013-08-13 02:17:00,71.3,66.8,30.06,SW,225,0.0,0.0,86,-99.99,,,-99.99,WSDL version 430,2013-08-13 07:17:00,
2013-08-13 02:22:00,71.1,66.4,30.09,SW,225,0.0,0.0,85,-99.99,,,-99.99,WSDL version 430,2013-08-13 07:22:00,
2013-08-13 02:27:00,70.8,66.1,30.09,SW,225,0.0,0.0,85,-99.99,,,-99.99,WSDL version 430,2013-08-13 07:27:00,
2013-08-13 02:32:00,70.5,66.1,30.09,SW,225,0.0,0.0,86,-99.99,,,-99.99,WSDL version 430,2013-08-13 07:32:00,
2013-08-13 02:37:00,70.4,66.2,30.09,SW,225,0.0,0.0,87,-99.99,,,-99.99,WSDL version 430,2013-08-13 07:37:00,
2013-08-13 02:42:00,70.2,66.0,30.09,SW,225,0.0,0.0,87,-99.99,,,-99.99,WSDL version 430,2013-08-13 07:42:00,
2013-08-13 02:47:00,70.1,66.3,30.09,SW,225,0.0,0.0,88,-99.99,,,-99.99,WSDL version 430,2013-08-13 07:47:00,
2013-08-13 02:52:00,70.0,66.2,30.09,SW,225,0.0,0.0,88,-99.99,,,-99.99,WSDL version 430,2013-08-13 07:52:00,
2013-08-13 02:57:00,69.9,66.1,30.09,SW,225,0.0,0.0,88,-99.99,,,-99.99,WSDL version 430,2013-08-13 07:57:00,
2013-08-13 03:02:00,69.8,66.2,30.09,SW,225,0.0,0.0,88,-99.99,,,-99.99,WSDL version 430,2013-08-13 08:02:00,
2013-08-13 03:07:00,69.7,66.3,30.09,SW,225,0.0,0.0,89,-99.99,,,-99.99,WSDL version 430,2013-08-13 08:07:00,
2013-08-13 03:12:00,69.6,66.2,30.09,WSW,248,0.0,0.0,89,-99.99,,,-99.99,WSDL version 430,2013-08-13 08:12:00,
2013-08-13 03:17:00,69.4,66.3,30.09,WSW,248,0.0,0.0,90,-99.99,,,-99.99,WSDL version 430,2013-08-13 08:17:00,
2013-08-13 03:22:00,69.4,66.4,30.09,WSW,248,0.0,0.0,90,-99.99,,,-99.99,WSDL version 430,2013-08-13 08:22:00,
2013-08-13 03:27:00,69.3,66.2,30.09,WSW,248,0.0,0.0,90,-99.99,,,-99.99,WSDL version 430,2013-08-13 08:27:00,
2013-08-13 03:32:00,69.3,66.2,30.09,WSW,248,0.0,0.0,90,-99.99,,,-99.99,WSDL version 430,2013-08-13 08:32:00,
2013-08-13 03:37:00,69.3,66.5,30.09,WSW,248,0.0,0.0,91,-99.99,,,-99.99,WSDL version 430,2013-08-13 08:37:00,
2013-08-13 03:42:00,69.3,66.6,30.09,WSW,248,0.0,0.0,91,-99.99,,,-99.99,WSDL version 430,2013-08-13 08:42:00,
2013-08-13 03:47:00,69.3,66.6,30.09,WSW,248,0.0,0.0,91,-99.99,,,-99.99,WSDL version 430,2013-08-13 08:47:00,
2013-08-13 03:52:00,69.3,66.6,30.09,WSW,248,0.0,0.0,91,-99.99,,,-99.99,WSDL version 430,2013-08-13 08:52:00,
2013-08-13 03:57:00,69.3,66.9,30.09,WSW,248,0.0,0.0,92,-99.99,,,-99.99,WSDL version 430,2013-08-13 08:57:00,
2013-08-13 04:02:00,69.3,66.9,30.09,WSW,248,0.0,0.0,92,-99.99,,,-99.99,WSDL version 430,2013-08-13 09:02:00,
2013-08-13 04:07:00,69.3,66.9,30.06,WSW,248,0.0,0.0,92,-99.99,,,-99.99,WSDL version 430,2013-08-13 09:07:00,
2013-08-13 04:12:00,69.1,66.8,30.06,WSW,248,0.0,0.0,92,-99.99,,,-99.99,WSDL version 430,2013-08-13 09:12:00,
2013-08-13 04:17:00,69.1,66.7,30.06,WSW,248,0.0,0.0,92,-99.99,,,-99.99,WSDL version 430,2013-08-13 09:17:00,
2013-08-13 04:22:00,69.3,67.1,30.06,WSW,248,0.0,0.0,93,-99.99,,,-99.99,WSDL version 430,2013-08-13 09:22:00,
2013-08-13 04:27:00,69.3,67.3,30.06,WSW,248,0.0,0.0,93,-99.99,,,-99.99,WSDL version 430,2013-08-13 09:27:00,
2013-08-13 04:32:00,69.3,67.3,30.06,WSW,248,0.0,0.0,93,-99.99,,,-99.99,WSDL version 430,2013-08-13 09:32:00,
2013-08-13 04:37:00,69.3,67.3,30.06,WSW,248,0.0,0.0,93,-99.99,,,-99.99,WSDL version 430,2013-08-13 09:37:00,
2013-08-13 04:42:00,69.3,67.3,30.06,WSW,248,0.0,0.0,93,-99.99,,,-99.99,WSDL version 430,2013-08-13 09:42:00,
2013-08-13 04:47:00,69.3,67.3,30.06,WSW,248,0.0,0.0,93,-99.99,,,-99.99,WSDL version 430,2013-08-13 09:47:00,
2013-08-13 04:52:00,69.3,67.3,30.06,WSW,248,0.0,0.0,93,-99.99,,,-99.99,WSDL version 430,2013-08-13 09:52:00,
2013-08-13 04:57:00,69.3,67.3,30.06,WSW,248,0.0,0.0,93,-99.99,,,-99.99,WSDL version 430,2013-08-13 09:57:00,
2013-08-13 05:02:00,69.2,67.2,30.06,WSW,248,0.0,0.0,93,-99.99,,,-99.99,WSDL version 430,2013-08-13 10:02:00,
2013-08-13 05:07:00,69.2,67.2,30.06,WSW,248,0.0,0.0,93,-99.99,,,-99.99,WSDL version 430,2013-08-13 10:07:00,
2013-08-13 05:12:00,69.2,67.2,30.06,WSW,248,0.0,0.0,94,-99.99,,,-99.99,WSDL version 430,2013-08-13 10:12:00,
2013-08-13 05:17:00,69.2,67.5,30.06,WSW,248,0.0,0.0,94,-99.99,,,-99.99,WSDL version 430,2013-08-13 10:17:00,
2013-08-13 05:22:00,69.2,67.6,30.06,WSW,248,0.0,0.0,94,-99.99,,,-99.99,WSDL version 430,2013-08-13 10:22:00,
2013-08-13 05:27:00,69.1,67.4,30.06,WSW,248,0.0,0.0,94,-99.99,,,-99.99,WSDL version 430,2013-08-13 10:27:00,
2013-08-13 05:32:00,69.1,67.4,30.06,WSW,248,0.0,0.0,94,-99.99,,,-99.99,WSDL version 430,2013-08-13 10:32:00,
2013-08-13 05:37:00,69.1,67.4,30.06,WSW,248,0.0,0.0,94,-99.99,,,-99.99,WSDL version 430,2013-08-13 10:37:00,
2013-08-13 05:42:00,69.1,67.4,30.06,WSW,248,0.0,0.0,94,-99.99,,,-99.99,WSDL version 430,2013-08-13 10:42:00,
2013-08-13 05:47:00,69.1,67.4,30.06,WSW,248,0.0,0.0,94,-99.99,,,-99.99,WSDL version 430,2013-08-13 10:47:00,
2013-08-13 05:52:00,69.1,67.5,30.09,WSW,248,0.0,0.0,95,-99.99,,,-99.99,WSDL version 430,2013-08-13 10:52:00,
2013-08-13 05:57:00,69.1,67.8,30.09,WSW,248,0.0,0.0,96,-99.99,,,-99.99,WSDL version 430,2013-08-13 10:57:00,
2013-08-13 06:02:00,69.1,67.8,30.09,WSW,248,0.0,0.0,96,-99.99,,,-99.99,WSDL version 430,2013-08-13 11:02:00,
2013-08-13 06:12:00,69.1,67.8,30.06,WSW,248,0.0,0.0,96,-99.99,,,-99.99,WSDL version 430,2013-08-13 11:12:00,
2013-08-13 06:17:00,69.1,67.8,30.06,WSW,248,0.0,0.0,96,-99.99,,,-99.99,WSDL version 430,2013-08-13 11:17:00,
2013-08-13 06:22:00,69.3,68.1,30.09,WSW,248,0.0,0.0,96,-99.99,,,-99.99,WSDL version 430,2013-08-13 11:22:00,
2013-08-13 06:27:00,69.6,68.4,30.09,WSW,248,0.0,0.0,96,-99.99,,,-99.99,WSDL version 430,2013-08-13 11:27:00,
2013-08-13 06:32:00,69.5,67.9,30.09,WSW,248,0.0,0.0,95,-99.99,,,-99.99,WSDL version 430,2013-08-13 11:32:00,
2013-08-13 06:37:00,69.3,67.6,30.09,WSW,248,0.0,0.0,94,-99.99,,,-99.99,WSDL version 430,2013-08-13 11:37:00,
2013-08-13 06:42:00,69.2,67.5,30.09,WSW,248,0.0,0.0,94,-99.99,,,-99.99,WSDL version 430,2013-08-13 11:42:00,
2013-08-13 06:47:00,69.1,67.4,30.09,WSW,248,0.0,0.0,94,-99.99,,,-99.99,WSDL version 430,2013-08-13 11:47:00,
2013-08-13 06:52:00,69.1,67.4,30.09,WSW,248,0.0,0.0,94,-99.99,,,-99.99,WSDL version 430,2013-08-13 11:52:00,
2013-08-13 06:57:00,69.1,67.4,30.09,SW,225,0.0,0.0,94,-99.99,,,-99.99,WSDL version 430,2013-08-13 11:57:00,
2013-08-13 07:02:00,69.1,67.4,30.09,SW,225,0.0,0.0,94,-99.99,,,-99.99,WSDL version 430,2013-08-13 12:02:00,
2013-08-13 07:07:00,69.1,67.4,30.12,SW,225,0.0,0.0,94,-99.99,,,-99.99,WSDL version 430,2013-08-13 12:07:00,
2013-08-13 07:12:00,69.1,67.7,30.12,SW,225,0.0,0.0,95,-99.99,,,-99.99,WSDL version 430,2013-08-13 12:12:00,
2013-08-13 07:17:00,69.1,67.8,30.12,SW,225,0.0,0.0,96,-99.99,,,-99.99,WSDL version 430,2013-08-13 12:17:00,
2013-08-13 07:22:00,69.1,67.8,30.12,SW,225,0.0,0.0,96,-99.99,,,-99.99,WSDL version 430,2013-08-13 12:22:00,
2013-08-13 07:27:00,69.2,67.9,30.12,SW,225,0.0,0.0,96,-99.99,,,-99.99,WSDL version 430,2013-08-13 12:27:00,
2013-08-13 07:32:00,69.3,67.9,30.12,WSW,239,0.0,0.0,96,-99.99,,,-99.99,WSDL version 430,2013-08-13 12:32:00,
2013-08-13 07:37:00,69.3,67.9,30.12,WSW,248,0.0,0.0,96,-99.99,,,-99.99,WSDL version 430,2013-08-13 12:37:00,
2013-08-13 07:42:00,69.3,68.1,30.12,WSW,248,0.0,0.0,96,-99.99,,,-99.99,WSDL version 430,2013-08-13 12:42:00,
2013-08-13 07:47:00,70.1,69.1,30.12,WSW,248,0.0,0.0,97,-99.99,,,-99.99,WSDL version 430,2013-08-13 12:47:00,
2013-08-13 07:52:00,70.5,69.5,30.12,WSW,248,0.0,0.0,96,-99.99,,,-99.99,WSDL version 430,2013-08-13 12:52:00,
2013-08-13 07:57:00,70.5,69.2,30.12,WSW,248,0.0,0.0,96,-99.99,,,-99.99,WSDL version 430,2013-08-13 12:57:00,
2013-08-13 08:02:00,70.5,69.2,30.12,WSW,248,0.0,0.0,96,-99.99,,,-99.99,WSDL version 430,2013-08-13 13:02:00,
2013-08-13 08:07:00,70.6,69.3,30.15,WSW,248,0.0,0.0,96,-99.99,,,-99.99,WSDL version 430,2013-08-13 13:07:00,
2013-08-13 08:12:00,71.1,70.0,30.15,WNW,284,0.0,0.0,96,-99.99,,,-99.99,WSDL version 430,2013-08-13 13:12:00,
2013-08-13 08:17:00,71.3,70.0,30.15,NW,315,0.0,0.0,96,-99.99,,,-99.99,WSDL version 430,2013-08-13 13:17:00,
2013-08-13 08:22:00,71.5,70.2,30.12,South,180,0.5,1.3,96,-99.99,,,-99.99,WSDL version 430,2013-08-13 13:22:00,
2013-08-13 08:27:00,71.7,70.0,30.12,South,180,0.0,1.3,94,-99.99,,,-99.99,WSDL version 430,2013-08-13 13:27:00,
2013-08-13 08:32:00,72.2,70.9,30.12,South,191,0.0,1.3,96,-99.99,,,-99.99,WSDL version 430,2013-08-13 13:32:00,
2013-08-13 08:37:00,73.5,72.2,30.12,WSW,248,0.0,1.3,96,-99.99,,,-99.99,WSDL version 430,2013-08-13 13:37:00,
2013-08-13 08:42:00,73.5,70.9,30.12,WSW,248,0.0,1.1,92,-99.99,,,-99.99,WSDL version 430,2013-08-13 13:42:00,
2013-08-13 08:47:00,73.3,70.5,30.12,NW,315,0.0,1.1,91,-99.99,,,-99.99,WSDL version 430,2013-08-13 13:47:00,
2013-08-13 08:52:00,73.0,70.3,30.12,NNW,338,0.9,1.3,91,-99.99,,,-99.99,WSDL version 430,2013-08-13 13:52:00,
2013-08-13 08:57:00,73.0,70.3,30.12,ENE,68,0.0,1.3,91,-99.99,,,-99.99,WSDL version 430,2013-08-13 13:57:00,
2013-08-13 09:02:00,73.1,70.4,30.12,ENE,68,0.0,1.6,91,-99.99,,,-99.99,WSDL version 430,2013-08-13 14:02:00,
2013-08-13 09:07:00,73.4,70.6,30.12,ENE,68,0.0,2.7,91,-99.99,,,-99.99,WSDL version 430,2013-08-13 14:07:00,
2013-08-13 09:12:00,73.8,70.5,30.12,East,80,1.4,3.4,90,-99.99,,,-99.99,WSDL version 430,2013-08-13 14:12:00,
2013-08-13 09:17:00,74.0,70.3,30.12,ENE,68,0.0,3.4,88,-99.99,,,-99.99,WSDL version 430,2013-08-13 14:17:00,
2013-08-13 09:22:00,74.5,70.8,30.12,SE,145,0.9,2.2,88,-99.99,,,-99.99,WSDL version 430,2013-08-13 14:22:00,
2013-08-13 09:27:00,74.8,70.0,30.12,ENE,58,0.0,2.9,85,-99.99,,,-99.99,WSDL version 430,2013-08-13 14:27:00,
2013-08-13 09:32:00,74.8,68.7,30.12,East,88,1.7,4.0,81,-99.99,,,-99.99,WSDL version 430,2013-08-13 14:32:00,
2013-08-13 09:37:00,74.8,68.0,30.12,ENE,68,0.1,4.0,79,-99.99,,,-99.99,WSDL version 430,2013-08-13 14:37:00,
2013-08-13 09:42:00,74.9,68.1,30.12,ENE,68,0.7,2.5,79,-99.99,,,-99.99,WSDL version 430,2013-08-13 14:42:00,
2013-08-13 09:52:00,76.2,68.3,30.12,NNE,18,1.9,6.3,77,-99.99,,,-99.99,WSDL version 430,2013-08-13 14:52:00,
2013-08-13 09:57:00,76.1,67.4,30.12,NE,45,2.8,5.8,75,-99.99,,,-99.99,WSDL version 430,2013-08-13 14:57:00,
2013-08-13 10:02:00,76.1,66.3,30.12,West,266,2.8,5.8,72,-99.99,,,-99.99,WSDL version 430,2013-08-13 15:02:00,
2013-08-13 10:07:00,76.1,66.4,30.09,ENE,59,2.2,5.4,72,-99.99,,,-99.99,WSDL version 430,2013-08-13 15:07:00,
2013-08-13 10:12:00,76.3,66.3,30.09,ENE,63,1.9,4.3,71,-99.99,,,-99.99,WSDL version 430,2013-08-13 15:12:00,
2013-08-13 10:17:00,76.3,66.2,30.09,NE,49,1.8,4.3,71,-99.99,,,-99.99,WSDL version 430,2013-08-13 15:17:00,
2013-08-13 10:22:00,76.4,66.3,30.12,ENE,59,2.0,4.3,71,-99.99,,,-99.99,WSDL version 430,2013-08-13 15:22:00,
2013-08-13 10:27:00,76.6,66.7,30.12,ESE,113,0.9,3.8,71,-99.99,,,-99.99,WSDL version 430,2013-08-13 15:27:00,
2013-08-13 10:32:00,77.4,67.5,30.12,NE,54,2.0,4.0,72,-99.99,,,-99.99,WSDL version 430,2013-08-13 15:32:00,
2013-08-13 10:37:00,77.6,67.1,30.12,ENE,72,0.4,4.3,70,-99.99,,,-99.99,WSDL version 430,2013-08-13 15:37:00,
2013-08-13 10:42:00,77.5,66.9,30.12,SSE,158,0.0,4.3,70,-99.99,,,-99.99,WSDL version 430,2013-08-13 15:42:00,
2013-08-13 10:47:00,77.5,67.0,30.12,NNE,32,1.5,3.6,70,-99.99,,,-99.99,WSDL version 430,2013-08-13 15:47:00,
2013-08-13 10:52:00,77.7,67.1,30.12,NNE,25,2.5,3.6,70,-99.99,,,-99.99,WSDL version 430,2013-08-13 15:52:00,
2013-08-13 10:57:00,77.8,66.8,30.12,ENE,65,0.7,3.6,69,-99.99,,,-99.99,WSDL version 430,2013-08-13 15:57:00,
2013-08-13 11:02:00,78.1,66.8,30.12,ESE,123,2.5,4.0,68,-99.99,,,-99.99,WSDL version 430,2013-08-13 16:02:00,
2013-08-13 11:07:00,78.3,66.9,30.12,ESE,123,1.6,4.7,68,-99.99,,,-99.99,WSDL version 430,2013-08-13 16:07:00,
2013-08-13 11:12:00,79.2,67.3,30.12,NE,54,2.5,4.7,67,-99.99,,,-99.99,WSDL version 430,2013-08-13 16:12:00,
2013-08-13 11:17:00,79.7,67.5,30.12,East,79,1.4,4.0,66,-99.99,,,-99.99,WSDL version 430,2013-08-13 16:17:00,
2013-08-13 11:22:00,79.6,67.2,30.15,SE,139,2.5,4.3,66,-99.99,,,-99.99,WSDL version 430,2013-08-13 16:22:00,
2013-08-13 11:27:00,80.2,65.8,30.15,SSE,148,1.1,4.3,62,-99.99,,,-99.99,WSDL version 430,2013-08-13 16:27:00,
2013-08-13 11:32:00,80.0,65.2,30.15,NE,41,1.8,3.4,61,-99.99,,,-99.99,WSDL version 430,2013-08-13 16:32:00,
2013-08-13 11:37:00,80.1,65.7,30.15,North,353,2.1,4.0,62,-99.99,,,-99.99,WSDL version 430,2013-08-13 16:37:00,
2013-08-13 11:42:00,80.4,64.4,30.15,NNE,33,2.6,4.7,58,-99.99,,,-99.99,WSDL version 430,2013-08-13 16:42:00,
2013-08-13 11:47:00,80.2,63.0,30.15,ESE,110,2.3,4.7,56,-99.99,,,-99.99,WSDL version 430,2013-08-13 16:47:00,
2013-08-13 11:52:00,80.4,64.2,30.12,NW,311,1.6,4.7,58,-99.99,,,-99.99,WSDL version 430,2013-08-13 16:52:00,
2013-08-13 11:57:00,80.8,64.5,30.12,ENE,78,3.1,4.0,58,-99.99,,,-99.99,WSDL version 430,2013-08-13 16:57:00,
2013-08-13 12:02:00,80.8,64.3,30.12,SE,129,1.8,4.0,57,-99.99,,,-99.99,WSDL version 430,2013-08-13 17:02:00,
2013-08-13 12:07:00,81.1,64.1,30.12,SE,129,2.4,3.8,56,-99.99,,,-99.99,WSDL version 430,2013-08-13 17:07:00,
2013-08-13 12:14:00,81.6,64.0,30.12,SSW,198,1.1,3.6,55,-99.99,,,-99.99,WSDL version 430,2013-08-13 17:14:00,
2013-08-13 12:19:00,81.4,63.3,30.12,SSW,196,1.5,3.4,54,-99.99,,,-99.99,WSDL version 430,2013-08-13 17:19:00,
2013-08-13 12:24:00,81.8,63.2,30.12,SE,135,2.2,3.1,53,-99.99,,,-99.99,WSDL version 430,2013-08-13 17:24:00,
2013-08-13 12:29:00,82.1,63.1,30.12,NNE,14,2.2,3.4,53,-99.99,,,-99.99,WSDL version 430,2013-08-13 17:29:00,
2013-08-13 12:34:00,82.3,63.2,30.12,North,4,3.2,6.3,53,-99.99,,,-99.99,WSDL version 430,2013-08-13 17:34:00,
2013-08-13 12:39:00,82.7,62.4,30.12,ENE,68,2.5,6.3,51,-99.99,,,-99.99,WSDL version 430,2013-08-13 17:39:00,
2013-08-13 12:44:00,82.6,60.2,30.12,North,350,4.7,9.6,47,-99.99,,,-99.99,WSDL version 430,2013-08-13 17:44:00,
2013-08-13 12:49:00,82.8,59.6,30.12,NE,49,4.0,9.6,46,-99.99,,,-99.99,WSDL version 430,2013-08-13 17:49:00,
2013-08-13 12:54:00,83.2,60.2,30.12,ESE,106,3.6,6.3,46,-99.99,,,-99.99,WSDL version 430,2013-08-13 17:54:00,
2013-08-13 12:59:00,83.4,60.0,30.12,NE,34,4.5,7.4,45,-99.99,,,-99.99,WSDL version 430,2013-08-13 17:59:00,
2013-08-13 13:04:00,83.8,60.2,30.12,North,351,3.0,7.4,45,-99.99,,,-99.99,WSDL version 430,2013-08-13 18:04:00,
2013-08-13 13:09:00,83.9,59.9,30.12,NE,36,3.1,6.5,44,-99.99,,,-99.99,WSDL version 430,2013-08-13 18:09:00,
2013-08-13 13:14:00,83.9,60.1,30.12,East,88,2.6,7.2,45,-99.99,,,-99.99,WSDL version 430,2013-08-13 18:14:00,
2013-08-13 13:19:00,84.0,59.6,30.12,East,82,1.9,7.2,44,-99.99,,,-99.99,WSDL version 430,2013-08-13 18:19:00,
2013-08-13 13:24:00,84.4,61.2,30.09,NE,36,2.8,6.3,46,-99.99,,,-99.99,WSDL version 430,2013-08-13 18:24:00,
2013-08-13 13:29:00,84.1,60.2,30.09,North,9,4.2,10.3,45,-99.99,,,-99.99,WSDL version 430,2013-08-13 18:29:00,
2013-08-13 13:34:00,83.8,59.7,30.09,ENE,59,4.9,11.0,44,-99.99,,,-99.99,WSDL version 430,2013-08-13 18:34:00,
2013-08-13 13:39:00,83.8,60.2,30.12,NNE,23,4.4,11.0,45,-99.99,,,-99.99,WSDL version 430,2013-08-13 18:39:00,
2013-08-13 13:44:00,84.0,60.0,30.12,NE,39,3.1,7.6,45,-99.99,,,-99.99,WSDL version 430,2013-08-13 18:44:00,
2013-08-13 13:49:00,84.4,60.5,30.12,SE,131,3.6,8.1,45,-99.99,,,-99.99,WSDL version 430,2013-08-13 18:49:00,
2013-08-13 13:54:00,84.6,60.6,30.12,NE,37,4.7,8.5,45,-99.99,,,-99.99,WSDL version 430,2013-08-13 18:54:00,
2013-08-13 13:59:00,84.6,60.3,30.12,NNE,28,4.2,8.7,44,-99.99,,,-99.99,WSDL version 430,2013-08-13 18:59:00,
2013-08-13 14:04:00,84.6,59.6,30.12,North,11,4.3,13.0,43,-99.99,,,-99.99,WSDL version 430,2013-08-13 19:04:00,
2013-08-13 14:09:00,84.4,59.1,30.12,North,8,6.3,13.6,43,-99.99,,,-99.99,WSDL version 430,2013-08-13 19:09:00,
2013-08-13 14:14:00,84.2,59.2,30.12,North,356,6.0,13.6,43,-99.99,,,-99.99,WSDL version 430,2013-08-13 19:14:00,
2013-08-13 14:19:00,83.8,59.0,30.12,North,360,4.4,8.5,43,-99.99,,,-99.99,WSDL version 430,2013-08-13 19:19:00,
2013-08-13 14:24:00,83.7,58.9,30.12,NNE,25,2.8,8.5,43,-99.99,,,-99.99,WSDL version 430,2013-08-13 19:24:00,
2013-08-13 14:29:00,83.7,59.6,30.12,NNE,20,2.5,8.5,44,-99.99,,,-99.99,WSDL version 430,2013-08-13 19:29:00,
2013-08-13 14:34:00,84.1,59.7,30.12,NNW,327,3.6,7.6,44,-99.99,,,-99.99,WSDL version 430,2013-08-13 19:34:00,
2013-08-13 14:39:00,84.0,60.0,30.12,ENE,61,2.9,6.3,44,-99.99,,,-99.99,WSDL version 430,2013-08-13 19:39:00,
2013-08-13 14:44:00,84.3,59.9,30.12,NNE,23,4.4,7.6,44,-99.99,,,-99.99,WSDL version 430,2013-08-13 19:44:00,
2013-08-13 14:49:00,84.6,59.1,30.12,NNE,33,3.0,7.6,42,-99.99,,,-99.99,WSDL version 430,2013-08-13 19:49:00,
2013-08-13 14:54:00,84.0,58.0,30.12,ESE,102,3.1,5.6,41,-99.99,,,-99.99,WSDL version 430,2013-08-13 19:54:00,
2013-08-13 14:59:00,83.4,57.6,30.12,NE,34,3.3,6.3,42,-99.99,,,-99.99,WSDL version 430,2013-08-13 19:59:00,
2013-08-13 15:04:00,82.9,57.5,30.12,North,10,3.7,7.4,42,-99.99,,,-99.99,WSDL version 430,2013-08-13 20:04:00,
2013-08-13 15:09:00,82.9,57.4,30.12,NE,41,4.1,8.7,42,-99.99,,,-99.99,WSDL version 430,2013-08-13 20:09:00,
2013-08-13 15:14:00,83.8,58.8,30.12,NNE,12,3.7,8.7,43,-99.99,,,-99.99,WSDL version 430,2013-08-13 20:14:00,
2013-08-13 15:19:00,84.1,58.9,30.12,NE,41,2.4,8.7,43,-99.99,,,-99.99,WSDL version 430,2013-08-13 20:19:00,
2013-08-13 15:24:00,84.2,57.6,30.09,ENE,61,3.6,7.4,41,-99.99,,,-99.99,WSDL version 430,2013-08-13 20:24:00,
2013-08-13 15:29:00,84.4,57.3,30.09,NE,45,3.3,8.5,40,-99.99,,,-99.99,WSDL version 430,2013-08-13 20:29:00,
2013-08-13 15:34:00,83.7,57.3,30.09,North,6,1.9,8.5,41,-99.99,,,-99.99,WSDL version 430,2013-08-13 20:34:00,
2013-08-13 15:39:00,83.0,57.0,30.12,ENE,63,2.6,8.5,41,-99.99,,,-99.99,WSDL version 430,2013-08-13 20:39:00,
2013-08-13 15:44:00,83.1,57.3,30.12,NNE,16,3.6,6.3,42,-99.99,,,-99.99,WSDL version 430,2013-08-13 20:44:00,
2013-08-13 15:49:00,83.1,57.2,30.12,ENE,61,2.9,6.3,41,-99.99,,,-99.99,WSDL version 430,2013-08-13 20:49:00,
2013-08-13 15:54:00,82.8,57.2,30.09,ENE,72,2.2,5.4,42,-99.99,,,-99.99,WSDL version 430,2013-08-13 20:54:00,
2013-08-13 15:59:00,82.6,57.3,30.09,NNE,27,3.4,5.8,42,-99.99,,,-99.99,WSDL version 430,2013-08-13 20:59:00,
2013-08-13 16:04:00,83.1,57.5,30.09,NNW,340,2.3,5.8,42,-99.99,,,-99.99,WSDL version 430,2013-08-13 21:04:00,
2013-08-13 16:09:00,83.3,58.6,30.09,ENE,61,2.1,4.3,43,-99.99,,,-99.99,WSDL version 430,2013-08-13 21:09:00,
2013-08-13 16:14:00,83.0,57.6,30.09,North,354,4.0,7.2,42,-99.99,,,-99.99,WSDL version 430,2013-08-13 21:14:00,
2013-08-13 16:19:00,82.3,56.4,30.09,NW,323,2.8,7.2,41,-99.99,,,-99.99,WSDL version 430,2013-08-13 21:19:00,
2013-08-13 16:24:00,81.7,56.5,30.09,NNE,16,4.1,7.4,42,-99.99,,,-99.99,WSDL version 430,2013-08-13 21:24:00,
2013-08-13 16:29:00,81.5,57.0,30.09,NNW,340,3.0,7.4,43,-99.99,,,-99.99,WSDL version 430,2013-08-13 21:29:00,
2013-08-13 16:34:00,81.3,57.0,30.09,NW,321,2.5,6.0,43,-99.99,,,-99.99,WSDL version 430,2013-08-13 21:34:00,
2013-08-13 16:39:00,81.2,57.3,30.09,NE,35,3.2,5.6,44,-99.99,,,-99.99,WSDL version 430,2013-08-13 21:39:00,
2013-08-13 16:44:00,81.1,57.4,30.09,North,5,3.0,6.3,44,-99.99,,,-99.99,WSDL version 430,2013-08-13 21:44:00,
2013-08-13 16:49:00,81.3,57.6,30.09,North,2,3.9,7.6,44,-99.99,,,-99.99,WSDL version 430,2013-08-13 21:49:00,
2013-08-13 16:54:00,81.6,58.2,30.09,NNE,18,4.4,8.5,45,-99.99,,,-99.99,WSDL version 430,2013-08-13 21:54:00,
2013-08-13 16:59:00,82.1,59.2,30.09,North,358,2.3,8.5,46,-99.99,,,-99.99,WSDL version 430,2013-08-13 21:59:00,
2013-08-13 17:04:00,82.7,60.1,30.09,NE,34,3.7,7.8,47,-99.99,,,-99.99,WSDL version 430,2013-08-13 22:04:00,
2013-08-13 17:09:00,82.8,59.7,30.09,NNW,347,4.2,7.8,46,-99.99,,,-99.99,WSDL version 430,2013-08-13 22:09:00,
2013-08-13 17:14:00,82.5,58.7,30.09,North,356,3.0,7.4,44,-99.99,,,-99.99,WSDL version 430,2013-08-13 22:14:00,
2013-08-13 17:19:00,82.1,58.8,30.09,ESE,122,3.3,5.8,45,-99.99,,,-99.99,WSDL version 430,2013-08-13 22:19:00,
2013-08-13 17:24:00,82.3,59.3,30.09,North,349,2.6,5.6,46,-99.99,,,-99.99,WSDL version 430,2013-08-13 22:24:00,
2013-08-13 17:29:00,81.9,58.4,30.09,NNE,32,3.9,7.4,45,-99.99,,,-99.99,WSDL version 430,2013-08-13 22:29:00,
2013-08-13 17:34:00,81.9,58.3,30.09,North,360,3.2,7.4,45,-99.99,,,-99.99,WSDL version 430,2013-08-13 22:34:00,
2013-08-13 17:39:00,82.1,59.2,30.09,ENE,62,2.2,5.6,46,-99.99,,,-99.99,WSDL version 430,2013-08-13 22:39:00,
2013-08-13 17:44:00,81.3,57.9,30.09,NNE,23,3.3,5.6,45,-99.99,,,-99.99,WSDL version 430,2013-08-13 22:44:00,
2013-08-13 17:49:00,80.8,57.9,30.09,North,11,3.8,6.5,46,-99.99,,,-99.99,WSDL version 430,2013-08-13 22:49:00,
2013-08-13 17:54:00,80.1,58.3,30.09,North,360,2.0,6.5,47,-99.99,,,-99.99,WSDL version 430,2013-08-13 22:54:00,
2013-08-13 17:59:00,79.7,57.8,30.09,NE,43,2.3,6.3,47,-99.99,,,-99.99,WSDL version 430,2013-08-13 22:59:00,
2013-08-13 18:04:00,79.3,57.4,30.09,NNE,14,2.3,6.3,47,-99.99,,,-99.99,WSDL version 430,2013-08-13 23:04:00,
2013-08-13 18:09:00,79.0,57.0,30.09,NNE,29,3.2,6.0,47,-99.99,,,-99.99,WSDL version 430,2013-08-13 23:09:00,
2013-08-13 18:14:00,78.7,56.9,30.09,NE,43,3.8,6.0,47,-99.99,,,-99.99,WSDL version 430,2013-08-13 23:14:00,
2013-08-13 18:19:00,78.5,56.1,30.09,NE,55,2.8,5.6,46,-99.99,,,-99.99,WSDL version 430,2013-08-13 23:19:00,
2013-08-13 18:24:00,78.2,55.8,30.09,NE,34,3.5,4.9,46,-99.99,,,-99.99,WSDL version 430,2013-08-13 23:24:00,
2013-08-13 18:29:00,77.8,55.6,30.09,NE,54,3.7,6.0,46,-99.99,,,-99.99,WSDL version 430,2013-08-13 23:29:00,
2013-08-13 18:34:00,77.6,55.5,30.09,NNE,14,3.2,8.1,46,-99.99,,,-99.99,WSDL version 430,2013-08-13 23:34:00,
2013-08-13 18:39:00,77.3,54.8,30.06,NE,47,3.8,8.1,46,-99.99,,,-99.99,WSDL version 430,2013-08-13 23:39:00,
2013-08-13 18:44:00,77.3,54.9,30.06,NE,43,2.6,6.3,46,-99.99,,,-99.99,WSDL version 430,2013-08-13 23:44:00,
2013-08-13 18:49:00,77.1,54.7,30.06,North,11,2.1,6.3,46,-99.99,,,-99.99,WSDL version 430,2013-08-13 23:49:00,
2013-08-13 18:54:00,76.9,54.6,30.09,NNE,18,2.8,4.3,46,-99.99,,,-99.99,WSDL version 430,2013-08-13 23:54:00,
2013-08-13 18:59:00,76.8,55.1,30.09,NE,43,1.6,4.3,47,-99.99,,,-99.99,WSDL version 430,2013-08-13 23:59:00,
2013-08-13 19:04:00,76.4,55.3,30.09,NE,55,1.9,5.8,48,-99.99,,,-99.99,WSDL version 430,2013-08-14 00:04:00,
2013-08-13 19:09:00,76.2,55.0,30.09,NE,54,1.4,5.8,48,-99.99,,,-99.99,WSDL version 430,2013-08-14 00:09:00,
2013-08-13 19:14:00,76.3,55.5,30.09,North,8,3.5,7.6,49,-99.99,,,-99.99,WSDL version 430,2013-08-14 00:14:00,
2013-08-13 19:19:00,76.0,55.3,30.09,North,353,2.5,7.6,49,-99.99,,,-99.99,WSDL version 430,2013-08-14 00:19:00,
2013-08-13 19:24:00,75.8,55.6,30.09,NE,54,2.5,6.5,50,-99.99,,,-99.99,WSDL version 430,2013-08-14 00:24:00,
2013-08-13 19:29:00,75.9,56.0,30.09,NNE,27,3.3,7.4,50,-99.99,,,-99.99,WSDL version 430,2013-08-14 00:29:00,
2013-08-13 19:34:00,75.6,55.5,30.09,NNE,13,3.9,7.6,50,-99.99,,,-99.99,WSDL version 430,2013-08-14 00:34:00,
2013-08-13 19:39:00,75.4,55.1,30.09,NE,42,2.5,7.6,49,-99.99,,,-99.99,WSDL version 430,2013-08-14 00:39:00,
2013-08-13 19:44:00,75.2,55.3,30.09,NE,45,1.4,7.6,50,-99.99,,,-99.99,WSDL version 430,2013-08-14 00:44:00,
2013-08-13 19:49:00,75.2,56.2,30.09,ENE,68,1.5,4.7,52,-99.99,,,-99.99,WSDL version 430,2013-08-14 00:49:00,
2013-08-13 19:54:00,75.0,56.7,30.09,North,360,1.0,4.7,53,-99.99,,,-99.99,WSDL version 430,2013-08-14 00:54:00,
2013-08-13 19:59:00,74.7,56.9,30.09,NE,45,1.5,2.7,54,-99.99,,,-99.99,WSDL version 430,2013-08-14 00:59:00,
2013-08-13 20:04:00,74.9,57.7,30.09,NE,48,1.7,5.8,55,-99.99,,,-99.99,WSDL version 430,2013-08-14 01:04:00,
2013-08-13 20:09:00,74.6,57.0,30.09,North,5,3.3,6.5,54,-99.99,,,-99.99,WSDL version 430,2013-08-14 01:09:00,
2013-08-13 20:14:00,74.2,56.6,30.09,NE,43,1.9,6.5,54,-99.99,,,-99.99,WSDL version 430,2013-08-14 01:14:00,
2013-08-13 20:19:00,74.2,57.0,30.09,ENE,68,0.4,3.6,55,-99.99,,,-99.99,WSDL version 430,2013-08-14 01:19:00,
2013-08-13 20:24:00,74.0,56.8,30.12,NNE,23,1.5,4.9,55,-99.99,,,-99.99,WSDL version 430,2013-08-14 01:24:00,
2013-08-13 20:29:00,73.7,57.0,30.12,NE,43,2.8,4.9,56,-99.99,,,-99.99,WSDL version 430,2013-08-14 01:29:00,
2013-08-13 20:34:00,73.4,57.0,30.12,NE,45,0.8,4.3,56,-99.99,,,-99.99,WSDL version 430,2013-08-14 01:34:00,
2013-08-13 20:39:00,73.0,57.2,30.12,NE,39,0.8,3.6,58,-99.99,,,-99.99,WSDL version 430,2013-08-14 01:39:00,
2013-08-13 20:44:00,72.9,57.2,30.12,NW,315,0.6,3.1,58,-99.99,,,-99.99,WSDL version 430,2013-08-14 01:44:00,
2013-08-13 20:49:00,72.9,57.7,30.12,NE,45,0.6,3.1,59,-99.99,,,-99.99,WSDL version 430,2013-08-14 01:49:00,
2013-08-13 20:54:00,72.6,57.4,30.12,NE,45,0.2,3.1,59,-99.99,,,-99.99,WSDL version 430,2013-08-14 01:54:00,
2013-08-13 20:59:00,72.9,57.8,30.12,NE,45,0.0,1.6,59,-99.99,,,-99.99,WSDL version 430,2013-08-14 01:59:00,
2013-08-13 21:04:00,72.9,57.6,30.12,NNW,331,0.0,0.0,59,-99.99,,,-99.99,WSDL version 430,2013-08-14 02:04:00,
2013-08-13 21:09:00,72.5,57.3,30.09,West,270,0.0,0.0,59,-99.99,,,-99.99,WSDL version 430,2013-08-14 02:09:00,
2013-08-13 21:14:00,72.7,57.5,30.09,West,270,0.0,0.0,59,-99.99,,,-99.99,WSDL version 430,2013-08-14 02:14:00,
2013-08-13 21:24:00,72.2,57.4,30.12,West,270,0.0,0.0,60,-99.99,,,-99.99,WSDL version 430,2013-08-14 02:24:00,
2013-08-13 21:29:00,72.4,57.8,30.12,WNW,301,0.0,0.0,60,-99.99,,,-99.99,WSDL version 430,2013-08-14 02:29:00,
2013-08-13 21:34:00,72.0,57.4,30.12,NNW,338,0.0,0.0,60,-99.99,,,-99.99,WSDL version 430,2013-08-14 02:34:00,
2013-08-13 21:39:00,71.9,57.5,30.12,NNW,338,0.0,0.0,61,-99.99,,,-99.99,WSDL version 430,2013-08-14 02:39:00,
2013-08-13 21:44:00,71.7,57.6,30.12,NNW,338,0.0,0.0,61,-99.99,,,-99.99,WSDL version 430,2013-08-14 02:44:00,
2013-08-13 21:49:00,71.4,57.5,30.12,NNW,338,0.0,0.0,61,-99.99,,,-99.99,WSDL version 430,2013-08-14 02:49:00,
2013-08-13 21:54:00,71.7,58.0,30.12,West,270,0.0,0.0,62,-99.99,,,-99.99,WSDL version 430,2013-08-14 02:54:00,
2013-08-13 21:59:00,71.5,57.8,30.12,West,270,0.0,0.0,62,-99.99,,,-99.99,WSDL version 430,2013-08-14 02:59:00,
2013-08-13 22:04:00,71.3,57.9,30.12,WNW,293,0.0,0.0,63,-99.99,,,-99.99,WSDL version 430,2013-08-14 03:04:00,
2013-08-13 22:09:00,71.3,58.0,30.15,WNW,293,0.0,0.0,63,-99.99,,,-99.99,WSDL version 430,2013-08-14 03:09:00,
2013-08-13 22:14:00,71.0,57.8,30.15,WNW,293,0.0,0.0,63,-99.99,,,-99.99,WSDL version 430,2013-08-14 03:14:00,
2013-08-13 22:19:00,71.2,58.4,30.15,WNW,293,0.0,0.0,64,-99.99,,,-99.99,WSDL version 430,2013-08-14 03:19:00,
2013-08-13 22:24:00,71.0,58.2,30.15,WNW,293,0.0,0.0,64,-99.99,,,-99.99,WSDL version 430,2013-08-14 03:24:00,
2013-08-13 22:29:00,70.8,58.1,30.15,WNW,293,0.0,0.0,64,-99.99,,,-99.99,WSDL version 430,2013-08-14 03:29:00,
2013-08-13 22:34:00,71.0,58.5,30.15,WNW,293,0.0,0.0,65,-99.99,,,-99.99,WSDL version 430,2013-08-14 03:34:00,
2013-08-13 22:39:00,70.6,58.1,30.15,WNW,293,0.0,0.0,65,-99.99,,,-99.99,WSDL version 430,2013-08-14 03:39:00,
2013-08-13 22:44:00,70.2,57.9,30.15,WNW,293,0.0,0.0,65,-99.99,,,-99.99,WSDL version 430,2013-08-14 03:44:00,
2013-08-13 22:49:00,70.1,57.9,30.15,WNW,293,0.0,0.0,65,-99.99,,,-99.99,WSDL version 430,2013-08-14 03:49:00,
2013-08-13 22:54:00,70.2,58.3,30.15,WNW,293,0.0,0.0,66,-99.99,,,-99.99,WSDL version 430,2013-08-14 03:54:00,
2013-08-13 22:59:00,69.8,58.2,30.15,WNW,293,0.0,0.0,67,-99.99,,,-99.99,WSDL version 430,2013-08-14 03:59:00,
2013-08-13 23:04:00,69.4,57.9,30.15,WNW,293,0.0,0.0,67,-99.99,,,-99.99,WSDL version 430,2013-08-14 04:04:00,
2013-08-13 23:09:00,69.3,58.2,30.15,WNW,293,0.0,0.0,68,-99.99,,,-99.99,WSDL version 430,2013-08-14 04:09:00,
2013-08-13 23:14:00,69.5,58.5,30.15,WNW,293,0.0,0.0,68,-99.99,,,-99.99,WSDL version 430,2013-08-14 04:14:00,
2013-08-13 23:19:00,69.2,58.3,30.15,WNW,293,0.0,0.9,68,-99.99,,,-99.99,WSDL version 430,2013-08-14 04:19:00,
2013-08-13 23:24:00,68.9,58.4,30.15,NW,315,0.5,1.6,69,-99.99,,,-99.99,WSDL version 430,2013-08-14 04:24:00,
2013-08-13 23:29:00,68.7,58.4,30.15,North,350,1.2,2.0,70,-99.99,,,-99.99,WSDL version 430,2013-08-14 04:29:00,
2013-08-13 23:34:00,68.8,58.6,30.15,NNW,340,1.4,2.5,70,-99.99,,,-99.99,WSDL version 430,2013-08-14 04:34:00,
2013-08-13 23:39:00,68.9,58.7,30.15,NNW,333,1.5,2.5,70,-99.99,,,-99.99,WSDL version 430,2013-08-14 04:39:00,
2013-08-13 23:44:00,68.8,58.6,30.15,North,2,2.4,3.1,70,-99.99,,,-99.99,WSDL version 430,2013-08-14 04:44:00,
2013-08-13 23:49:00,68.6,58.5,30.15,NNW,346,1.0,3.1,70,-99.99,,,-99.99,WSDL version 430,2013-08-14 04:49:00,
2013-08-13 23:54:00,68.5,58.4,30.15,NE,45,1.0,3.1,70,-99.99,,,-99.99,WSDL version 430,2013-08-14 04:54:00,
2013-08-13 23:59:00,68.4,58.6,30.15,ENE,68,0.1,3.1,71,-99.99,,,-99.99,WSDL version 430,2013-08-14 04:59:00,